createdAt,value
2023-02-13T00:01:08.005Z,28.38
2023-02-13T00:03:38.899Z,34.60
2023-02-13T00:06:06.758Z,31.58
2023-02-13T00:08:34.391Z,33.75
2023-02-13T00:11:02.052Z,29.05
2023-02-13T00:13:29.765Z,30.10
2023-02-13T00:16:02.887Z,32.17
2023-02-13T00:18:34.673Z,29.35
2023-02-13T00:21:10.189Z,31.55
2023-02-13T00:23:39.728Z,29.73
2023-02-13T00:26:14.662Z,27.27
2023-02-13T00:28:45.770Z,28.77
2023-02-13T00:31:17.079Z,33.38
2023-02-13T00:33:44.948Z,29.40
2023-02-13T00:36:16.682Z,29.00
2023-02-13T00:38:46.726Z,32.13
2023-02-13T00:41:17.346Z,28.48
2023-02-13T00:43:46.977Z,30.88
2023-02-13T00:46:16.371Z,29.45
2023-02-13T00:48:45.137Z,31.55
2023-02-13T00:51:13.767Z,32.60
2023-02-13T00:53:41.297Z,32.33
2023-02-13T00:56:09.016Z,32.83
2023-02-13T00:58:37.600Z,31.35
2023-02-13T01:01:05.515Z,31.08
2023-02-13T01:03:38.993Z,31.65
2023-02-13T01:06:07.320Z,34.13
2023-02-13T01:08:35.481Z,32.70
2023-02-13T01:11:03.454Z,31.77
2023-02-13T01:18:46.383Z,30.00
2023-02-13T01:21:19.503Z,36.78
2023-02-13T01:23:52.124Z,34.95
2023-02-13T01:26:24.313Z,33.95
2023-02-13T01:28:57.936Z,31.65
2023-02-13T01:31:27.004Z,29.85
2023-02-13T01:34:00.811Z,31.20
2023-02-13T01:36:28.554Z,32.20
2023-02-13T01:38:58.605Z,38.00
2023-02-13T01:41:27.769Z,31.98
2023-02-13T01:46:44.532Z,36.75
2023-02-13T01:49:24.452Z,35.50
2023-02-13T01:51:56.185Z,37.10
2023-02-13T01:54:31.179Z,36.22
2023-02-13T01:57:14.769Z,34.70
2023-02-13T01:59:53.315Z,35.50
2023-02-13T02:02:26.214Z,32.17
2023-02-13T02:04:54.455Z,35.22
2023-02-13T02:07:26.685Z,31.88
2023-02-13T02:10:00.686Z,36.30
2023-02-13T02:12:56.218Z,34.75
2023-02-13T02:15:24.637Z,33.30
2023-02-13T02:17:52.516Z,34.83
2023-02-13T02:21:09.885Z,33.60
2023-02-13T02:24:03.708Z,33.72
2023-02-13T02:27:05.535Z,32.35
2023-02-13T02:30:09.863Z,31.45
2023-02-13T02:33:14.528Z,39.85
2023-02-13T02:36:02.058Z,32.60
2023-02-13T02:38:53.559Z,34.83
2023-02-13T02:41:44.284Z,34.58
2023-02-13T02:44:54.751Z,35.00
2023-02-13T02:48:10.229Z,35.95
2023-02-13T02:50:50.382Z,32.45
2023-02-13T02:54:25.395Z,31.25
2023-02-13T02:56:57.382Z,35.60
2023-02-13T02:59:48.627Z,36.05
2023-02-13T03:02:36.757Z,38.15
2023-02-13T03:05:35.726Z,34.45
2023-02-13T03:08:04.702Z,34.65
2023-02-13T03:10:54.468Z,33.88
2023-02-13T03:13:45.177Z,35.05
2023-02-13T03:16:41.749Z,36.15
2023-02-13T03:20:12.308Z,35.20
2023-02-13T03:23:20.549Z,35.78
2023-02-13T03:26:00.298Z,32.60
2023-02-13T03:29:21.231Z,29.48
2023-02-13T03:32:17.152Z,31.58
2023-02-13T03:35:15.900Z,34.55
2023-02-13T03:41:13.661Z,31.02
2023-02-13T03:44:13.145Z,30.90
2023-02-13T03:46:48.497Z,30.25
2023-02-13T03:49:53.350Z,30.92
2023-02-13T03:52:36.421Z,33.45
2023-02-13T03:55:44.545Z,29.77
2023-02-13T03:58:38.335Z,36.47
2023-02-13T04:01:08.847Z,37.22
2023-02-13T04:03:54.657Z,34.67
2023-02-13T04:06:37.182Z,31.48
2023-02-13T04:09:05.006Z,32.67
2023-02-13T04:11:40.811Z,34.30
2023-02-13T04:14:17.574Z,35.22
2023-02-13T04:16:54.746Z,34.83
2023-02-13T04:19:24.658Z,28.40
2023-02-13T04:22:01.967Z,31.85
2023-02-13T04:24:30.753Z,35.30
2023-02-13T04:26:59.158Z,31.88
2023-02-13T04:29:27.443Z,34.55
2023-02-13T04:31:55.220Z,35.53
2023-02-13T04:34:23.499Z,32.85
2023-02-13T04:36:51.247Z,35.38
2023-02-13T04:39:18.828Z,31.85
2023-02-13T04:41:46.609Z,31.70
2023-02-13T04:44:14.464Z,33.55
2023-02-13T04:46:42.067Z,30.35
2023-02-13T04:49:11.688Z,31.65
2023-02-13T04:51:39.388Z,32.05
2023-02-13T04:54:06.962Z,28.73
2023-02-13T04:56:34.674Z,35.97
2023-02-13T04:59:02.293Z,33.63
2023-02-13T05:01:30.070Z,31.45
2023-02-13T05:03:57.605Z,34.13
2023-02-13T05:06:25.161Z,31.77
2023-02-13T05:08:52.828Z,35.30
2023-02-13T05:11:20.498Z,35.28
2023-02-13T05:13:48.046Z,31.95
2023-02-13T05:16:17.668Z,35.50
2023-02-13T05:18:45.421Z,32.30
2023-02-13T05:21:31.294Z,30.35
2023-02-13T05:23:58.948Z,30.83
2023-02-13T05:26:26.511Z,35.17
2023-02-13T05:29:12.577Z,30.02
2023-02-13T05:31:40.316Z,29.63
2023-02-13T05:34:08.064Z,35.35
2023-02-13T05:36:35.790Z,34.05
2023-02-13T05:39:03.510Z,29.92
2023-02-13T05:41:36.561Z,34.97
2023-02-13T05:44:05.014Z,34.70
2023-02-13T05:46:32.917Z,31.60
2023-02-13T05:49:01.555Z,32.42
2023-02-13T05:51:30.802Z,32.45
2023-02-13T05:53:58.460Z,35.78
2023-02-13T05:56:26.421Z,34.53
2023-02-13T05:58:55.894Z,30.75
2023-02-13T06:01:24.929Z,33.85
2023-02-13T06:03:52.558Z,32.22
2023-02-13T06:06:21.284Z,34.35
2023-02-13T06:08:48.836Z,41.33
2023-02-13T06:11:19.523Z,31.90
2023-02-13T06:13:47.100Z,35.22
2023-02-13T06:16:17.656Z,37.28
2023-02-13T06:18:45.301Z,34.80
2023-02-13T06:21:12.826Z,37.33
2023-02-13T06:23:40.433Z,34.38
2023-02-13T06:26:09.245Z,35.17
2023-02-13T06:28:37.131Z,36.05
2023-02-13T06:31:05.367Z,41.72
2023-02-13T06:33:33.163Z,34.57
2023-02-13T06:36:00.974Z,37.35
2023-02-13T06:38:28.839Z,38.08
2023-02-13T06:41:01.909Z,34.25
2023-02-13T06:43:29.816Z,36.08
2023-02-13T06:45:57.467Z,33.40
2023-02-13T06:48:25.602Z,42.00
2023-02-13T06:50:53.550Z,32.75
2023-02-13T06:53:24.775Z,36.67
2023-02-13T06:55:54.300Z,38.55
2023-02-13T06:58:23.840Z,34.90
2023-02-13T07:00:52.689Z,36.03
2023-02-13T07:03:20.551Z,40.58
2023-02-13T07:05:51.888Z,36.97
2023-02-13T07:08:19.826Z,46.30
2023-02-13T07:10:47.446Z,37.83
2023-02-13T07:13:15.191Z,35.58
2023-02-13T07:15:42.738Z,37.15
2023-02-13T07:18:10.405Z,45.22
2023-02-13T07:20:37.996Z,37.28
2023-02-13T07:23:07.789Z,38.90
2023-02-13T07:25:35.703Z,35.72
2023-02-13T07:28:05.805Z,36.08
2023-02-13T07:30:34.967Z,31.95
2023-02-13T07:33:04.912Z,37.47
2023-02-13T07:35:33.355Z,38.28
2023-02-13T07:38:01.163Z,36.03
2023-02-13T07:40:28.831Z,41.05
2023-02-13T07:42:56.839Z,40.65
2023-02-13T07:45:24.471Z,37.88
2023-02-13T07:47:55.288Z,37.83
2023-02-13T07:50:24.366Z,36.53
2023-02-13T07:53:02.725Z,33.53
2023-02-13T07:55:31.302Z,36.92
2023-02-13T07:58:00.960Z,34.13
2023-02-13T08:00:29.849Z,34.42
2023-02-13T08:03:00.826Z,43.65
2023-02-13T08:05:31.866Z,36.40
2023-02-13T08:08:08.310Z,44.42
2023-02-13T08:10:54.395Z,41.05
2023-02-13T08:13:24.979Z,48.80
2023-02-13T08:15:52.730Z,41.85
2023-02-13T08:18:20.388Z,36.50
2023-02-13T08:20:48.671Z,45.95
2023-02-13T08:23:16.341Z,41.47
2023-02-13T08:25:43.996Z,44.08
2023-02-13T08:28:11.814Z,39.42
2023-02-13T08:30:39.836Z,39.60
2023-02-13T08:33:07.476Z,38.20
2023-02-13T08:35:35.310Z,39.40
2023-02-13T08:38:06.038Z,44.58
2023-02-13T08:40:34.198Z,40.45
2023-02-13T08:43:09.117Z,47.70
2023-02-13T08:45:38.103Z,42.42
2023-02-13T08:48:08.279Z,44.97
2023-02-13T08:50:39.260Z,40.58
2023-02-13T08:53:06.889Z,43.65
2023-02-13T08:55:34.557Z,41.72
2023-02-13T08:58:03.966Z,40.78
2023-02-13T09:00:42.892Z,41.80
2023-02-13T09:03:11.112Z,36.28
2023-02-13T09:05:39.155Z,39.15
2023-02-13T09:08:08.149Z,41.60
2023-02-13T09:10:35.853Z,35.95
2023-02-13T09:13:03.502Z,33.40
2023-02-13T09:15:32.211Z,35.80
2023-02-13T09:17:59.818Z,37.10
2023-02-13T09:20:27.785Z,32.50
2023-02-13T09:22:56.809Z,33.92
2023-02-13T09:25:24.435Z,30.92
2023-02-13T09:27:52.123Z,25.17
2023-02-13T09:30:25.730Z,27.20
2023-02-13T09:32:54.849Z,26.08
2023-02-13T09:35:24.011Z,27.38
2023-02-13T09:37:51.713Z,27.70
2023-02-13T09:40:29.025Z,27.83
2023-02-13T09:43:13.219Z,25.95
2023-02-13T09:45:43.852Z,30.02
2023-02-13T09:48:31.941Z,28.15
2023-02-13T09:51:00.756Z,29.40
2023-02-13T09:53:33.282Z,24.45
2023-02-13T09:56:19.756Z,22.63
2023-02-13T09:59:15.485Z,26.08
2023-02-13T10:01:49.498Z,23.25
2023-02-13T10:04:42.145Z,22.92
2023-02-13T10:07:44.078Z,22.73
2023-02-13T10:10:38.779Z,31.20
2023-02-13T10:13:49.230Z,26.90
2023-02-13T10:16:30.737Z,26.30
2023-02-13T10:19:08.927Z,26.23
2023-02-13T10:22:25.112Z,24.37
2023-02-13T10:25:06.049Z,21.40
2023-02-13T10:27:40.985Z,22.35
2023-02-13T10:30:31.144Z,27.67
2023-02-13T10:33:19.968Z,22.08
2023-02-13T10:35:59.334Z,24.83
2023-02-13T10:38:34.843Z,20.45
2023-02-13T10:41:05.772Z,21.17
2023-02-13T10:43:50.278Z,20.80
2023-02-13T10:46:54.050Z,20.23
2023-02-13T10:49:46.792Z,23.10
2023-02-13T10:52:39.339Z,18.92
2023-02-13T10:55:18.892Z,19.88
2023-02-13T10:58:16.342Z,18.85
2023-02-13T11:01:09.483Z,23.55
2023-02-13T11:03:37.731Z,17.58
2023-02-13T11:06:09.139Z,18.27
2023-02-13T11:08:43.639Z,16.25
2023-02-13T11:11:38.980Z,17.75
2023-02-13T11:14:24.113Z,17.70
2023-02-13T11:17:05.332Z,20.35
2023-02-13T11:20:10.126Z,14.88
2023-02-13T11:22:45.169Z,16.80
2023-02-13T11:25:31.242Z,17.58
2023-02-13T11:28:18.396Z,15.07
2023-02-13T11:30:46.527Z,16.02
2023-02-13T11:33:24.654Z,20.10
2023-02-13T11:36:10.235Z,22.63
2023-02-13T11:38:37.964Z,18.90
2023-02-13T11:41:11.826Z,20.58
2023-02-13T11:43:51.038Z,20.75
2023-02-13T11:46:24.646Z,21.80
2023-02-13T11:49:21.115Z,22.02
2023-02-13T11:51:52.126Z,22.45
2023-02-13T11:54:25.927Z,18.77
2023-02-13T11:57:05.792Z,26.15
2023-02-13T11:59:43.009Z,19.88
2023-02-13T12:02:30.934Z,18.95
2023-02-13T12:05:20.296Z,18.75
2023-02-13T12:07:49.088Z,21.10
2023-02-13T12:10:29.024Z,17.05
2023-02-13T12:13:06.452Z,19.40
2023-02-13T12:15:37.298Z,19.02
2023-02-13T12:18:31.701Z,20.95
2023-02-13T12:21:23.707Z,18.00
2023-02-13T12:24:27.854Z,20.33
2023-02-13T12:27:23.652Z,21.98
2023-02-13T12:29:57.317Z,21.10
2023-02-13T12:33:28.916Z,20.70
2023-02-13T12:36:21.986Z,18.08
2023-02-13T12:39:17.864Z,18.75
2023-02-13T12:42:26.531Z,20.05
2023-02-13T12:45:43.119Z,15.60
2023-02-13T12:48:30.863Z,16.25
2023-02-13T12:51:34.979Z,14.93
2023-02-13T12:54:43.646Z,15.20
2023-02-13T12:57:38.721Z,12.13
2023-02-13T13:00:12.810Z,14.27
2023-02-13T13:03:36.844Z,13.80
2023-02-13T13:06:29.147Z,13.45
2023-02-13T13:09:42.904Z,15.43
2023-02-13T13:12:25.291Z,13.95
2023-02-13T13:15:58.851Z,15.18
2023-02-13T13:18:39.957Z,10.52
2023-02-13T13:21:21.991Z,11.82
2023-02-13T13:24:30.282Z,12.07
2023-02-13T13:27:00.830Z,13.80
2023-02-13T13:30:13.740Z,13.30
2023-02-13T13:32:43.989Z,14.07
2023-02-13T13:35:20.263Z,13.40
2023-02-13T13:38:17.331Z,12.10
2023-02-13T13:41:02.152Z,11.85
2023-02-13T13:43:57.340Z,15.70
2023-02-13T13:47:00.968Z,11.95
2023-02-13T13:49:54.031Z,11.88
2023-02-13T13:52:37.479Z,12.23
2023-02-13T13:55:06.936Z,11.05
2023-02-13T13:57:40.674Z,13.23
2023-02-13T14:00:08.248Z,12.85
2023-02-13T14:03:23.497Z,10.80
2023-02-13T14:06:23.899Z,10.70
2023-02-13T14:09:02.731Z,12.98
2023-02-13T14:11:41.349Z,11.23
2023-02-13T14:14:27.521Z,9.93
2023-02-13T14:17:02.036Z,11.00
2023-02-13T14:19:48.293Z,10.25
2023-02-13T14:22:36.210Z,10.07
2023-02-13T14:25:22.039Z,11.80
2023-02-13T14:28:04.284Z,10.55
2023-02-13T14:30:36.832Z,18.20
2023-02-13T14:33:20.554Z,10.57
2023-02-13T14:36:20.207Z,12.77
2023-02-13T14:39:00.697Z,10.73
2023-02-13T14:41:54.077Z,13.70
2023-02-13T14:44:53.981Z,17.63
2023-02-13T14:47:40.358Z,14.50
2023-02-13T14:50:23.492Z,13.50
2023-02-13T14:52:52.684Z,12.52
2023-02-13T14:55:33.525Z,11.27
2023-02-13T14:58:21.008Z,14.40
2023-02-13T15:01:11.608Z,11.85
2023-02-13T15:03:49.661Z,16.50
2023-02-13T15:06:37.535Z,12.07
2023-02-13T15:09:29.026Z,13.55
2023-02-13T15:11:56.241Z,10.50
2023-02-13T15:14:34.962Z,11.38
2023-02-13T15:17:32.849Z,13.45
2023-02-13T15:20:26.218Z,13.02
2023-02-13T15:22:54.283Z,13.85
2023-02-13T15:25:38.040Z,13.82
2023-02-13T15:28:20.936Z,15.48
2023-02-13T15:31:02.529Z,13.43
2023-02-13T15:33:47.732Z,17.05
2023-02-13T15:36:22.926Z,13.50
2023-02-13T15:38:50.220Z,12.68
2023-02-13T15:41:35.977Z,11.88
2023-02-13T15:44:04.514Z,12.77
2023-02-13T15:46:38.817Z,12.43
2023-02-13T15:49:18.310Z,13.95
2023-02-13T15:51:47.491Z,14.65
2023-02-13T15:56:57.186Z,12.88
2023-02-13T15:59:33.934Z,12.35
2023-02-13T16:02:04.538Z,14.00
2023-02-13T16:04:32.995Z,20.83
2023-02-13T16:07:01.494Z,29.30
2023-02-13T16:09:35.938Z,15.43
2023-02-13T16:12:27.982Z,18.50
2023-02-13T16:15:03.518Z,15.85
2023-02-13T16:17:35.523Z,18.67
2023-02-13T16:20:19.278Z,16.65
2023-02-13T16:23:03.441Z,15.43
2023-02-13T16:25:40.448Z,15.38
2023-02-13T16:28:22.311Z,17.10
2023-02-13T16:30:58.207Z,16.10
2023-02-13T16:33:33.586Z,16.10
2023-02-13T16:36:11.750Z,19.50
2023-02-13T16:38:48.695Z,24.83
2023-02-13T16:41:22.466Z,21.42
2023-02-13T16:44:04.933Z,18.30
2023-02-13T16:46:42.656Z,20.58
2023-02-13T16:49:10.220Z,21.33
2023-02-13T16:52:18.897Z,19.92
2023-02-13T16:54:57.297Z,19.13
2023-02-13T16:57:41.886Z,20.38
2023-02-13T17:00:26.317Z,21.35
2023-02-13T17:02:54.032Z,20.33
2023-02-13T17:05:25.186Z,22.67
2023-02-13T17:08:00.311Z,20.80
2023-02-13T17:10:37.577Z,19.88
2023-02-13T17:13:19.506Z,23.20
2023-02-13T17:15:48.450Z,21.58
2023-02-13T17:18:16.057Z,23.02
2023-02-13T17:20:45.385Z,21.00
2023-02-13T17:23:23.193Z,20.55
2023-02-13T17:25:53.749Z,22.80
2023-02-13T17:28:24.345Z,23.17
2023-02-13T17:30:56.833Z,23.38
2023-02-13T17:33:31.534Z,20.50
2023-02-13T17:35:59.325Z,21.58
2023-02-13T17:38:27.070Z,22.42
2023-02-13T17:40:54.740Z,24.08
2023-02-13T17:43:22.858Z,25.40
2023-02-13T17:45:51.002Z,27.05
2023-02-13T17:48:19.060Z,24.30
2023-02-13T17:50:48.982Z,25.00
2023-02-13T17:53:27.326Z,25.40
2023-02-13T17:55:55.054Z,23.10
2023-02-13T17:58:23.113Z,22.38
2023-02-13T18:00:51.216Z,28.23
2023-02-13T18:03:19.100Z,27.58
2023-02-13T18:05:50.122Z,26.50
2023-02-13T18:08:17.859Z,26.80
2023-02-13T18:10:45.729Z,24.80
2023-02-13T18:13:13.341Z,28.08
2023-02-13T18:15:43.865Z,24.33
2023-02-13T18:18:15.779Z,28.63
2023-02-13T18:20:44.226Z,24.95
2023-02-13T18:23:14.075Z,25.43
2023-02-13T18:25:41.854Z,25.05
2023-02-13T18:28:09.794Z,26.83
2023-02-13T18:30:37.848Z,24.92
2023-02-13T18:33:05.513Z,27.02
2023-02-13T18:35:33.444Z,27.90
2023-02-13T18:38:01.084Z,29.17
2023-02-13T18:40:28.833Z,25.52
2023-02-13T18:42:56.740Z,29.88
2023-02-13T18:45:24.591Z,26.98
2023-02-13T18:47:52.486Z,32.15
2023-02-13T18:50:24.608Z,27.25
2023-02-13T18:52:52.322Z,28.50
2023-02-13T18:55:19.939Z,28.45
2023-02-13T18:57:48.016Z,28.90
2023-02-13T19:00:17.241Z,26.98
2023-02-13T19:02:44.908Z,29.10
2023-02-13T19:05:12.551Z,35.38
2023-02-13T19:07:40.104Z,31.58
2023-02-13T19:10:08.477Z,31.45
2023-02-13T19:12:36.456Z,36.75
2023-02-13T19:15:05.051Z,32.15
2023-02-13T19:17:34.451Z,35.10
2023-02-13T19:20:02.054Z,30.25
2023-02-13T19:22:29.716Z,33.22
2023-02-13T19:24:57.340Z,35.45
2023-02-13T19:27:24.947Z,32.58
2023-02-13T19:29:52.567Z,33.30
2023-02-13T19:32:26.304Z,28.88
2023-02-13T19:34:53.925Z,29.65
2023-02-13T19:37:21.471Z,30.42
2023-02-13T19:39:49.231Z,29.67
2023-02-13T19:42:20.178Z,32.40
2023-02-13T19:44:47.751Z,32.65
2023-02-13T19:47:20.451Z,37.35
2023-02-13T19:49:49.310Z,34.72
2023-02-13T19:52:16.979Z,39.20
2023-02-13T19:54:44.796Z,36.95
2023-02-13T19:57:13.876Z,36.53
2023-02-13T19:59:41.495Z,39.00
2023-02-13T20:02:15.195Z,36.17
2023-02-13T20:04:43.353Z,34.70
2023-02-13T20:07:11.124Z,39.47
2023-02-13T20:09:40.106Z,34.35
2023-02-13T20:12:07.933Z,37.17
2023-02-13T20:14:35.590Z,34.60
2023-02-13T20:17:03.420Z,31.98
2023-02-13T20:19:31.011Z,58.50
2023-02-13T20:21:58.753Z,44.97
2023-02-13T20:24:26.439Z,44.28
2023-02-13T20:26:56.426Z,43.78
2023-02-13T20:29:24.011Z,43.97
2023-02-13T20:31:52.399Z,39.40
2023-02-13T20:34:20.108Z,36.63
2023-02-13T20:36:47.783Z,35.97
2023-02-13T20:39:15.335Z,35.38
2023-02-13T20:41:48.412Z,42.10
2023-02-13T20:44:19.058Z,35.83
2023-02-13T20:46:46.647Z,37.17
2023-02-13T20:49:20.078Z,36.53
2023-02-13T20:51:48.517Z,39.63
2023-02-13T20:54:16.320Z,39.70
2023-02-13T20:56:45.233Z,35.17
2023-02-13T20:59:13.277Z,38.45
2023-02-13T21:01:41.512Z,38.45
2023-02-13T21:04:13.595Z,35.43
2023-02-13T21:06:42.178Z,37.08
2023-02-13T21:09:10.829Z,40.10
2023-02-13T21:11:43.663Z,40.08
2023-02-13T21:14:12.888Z,51.40
2023-02-13T21:19:21.027Z,42.85
2023-02-13T21:21:49.163Z,39.38
2023-02-13T21:24:22.486Z,38.77
2023-02-13T21:26:52.497Z,39.40
2023-02-13T21:29:20.451Z,40.58
2023-02-13T21:31:48.431Z,40.70
2023-02-13T21:34:18.017Z,44.35
2023-02-13T21:36:46.690Z,44.67
2023-02-13T21:39:15.427Z,41.38
2023-02-13T21:41:45.818Z,44.85
2023-02-13T21:44:15.170Z,38.60
2023-02-13T21:46:44.424Z,39.22
2023-02-13T21:49:18.298Z,39.00
2023-02-13T21:51:46.944Z,37.72
2023-02-13T21:54:15.059Z,37.35
2023-02-13T21:56:43.941Z,35.10
2023-02-13T22:01:50.186Z,43.13
2023-02-13T22:04:18.839Z,39.72
2023-02-13T22:06:51.006Z,40.25
2023-02-13T22:09:21.124Z,36.63
2023-02-13T22:11:50.985Z,37.25
2023-02-13T22:14:19.961Z,44.42
2023-02-13T22:17:13.405Z,41.25
2023-02-13T22:19:42.170Z,40.42
2023-02-13T22:22:10.217Z,42.95
2023-02-13T22:24:37.927Z,40.63
2023-02-13T22:27:05.694Z,39.88
2023-02-13T22:29:33.391Z,37.58
2023-02-13T22:32:01.141Z,37.40
2023-02-13T22:34:28.804Z,47.08
2023-02-13T22:36:56.317Z,42.58
2023-02-13T22:39:23.994Z,42.25
2023-02-13T22:41:55.919Z,41.42
2023-02-13T22:44:23.431Z,41.65
2023-02-13T22:46:50.932Z,41.53
2023-02-13T22:49:18.493Z,41.05
2023-02-13T22:51:46.030Z,40.13
2023-02-13T22:54:13.620Z,41.80
2023-02-13T22:56:41.208Z,44.47
2023-02-13T22:59:11.530Z,41.28
2023-02-13T23:01:39.786Z,41.15
2023-02-13T23:04:07.602Z,35.75
2023-02-13T23:06:35.155Z,41.45
2023-02-13T23:09:02.763Z,36.30
2023-02-13T23:11:48.662Z,39.03
2023-02-13T23:14:16.743Z,35.58
2023-02-13T23:17:03.366Z,42.65
2023-02-13T23:19:31.707Z,39.78
2023-02-13T23:22:00.490Z,41.97
2023-02-13T23:24:29.907Z,36.70
2023-02-13T23:26:58.936Z,44.15
2023-02-13T23:29:27.396Z,42.00
2023-02-13T23:31:55.274Z,37.05
2023-02-13T23:34:23.324Z,38.80
2023-02-13T23:36:50.985Z,40.00
2023-02-13T23:39:19.795Z,42.00
2023-02-13T23:41:47.320Z,39.88
2023-02-13T23:44:14.982Z,40.63
2023-02-13T23:46:42.538Z,41.60
2023-02-13T23:49:10.161Z,40.58
2023-02-13T23:51:37.748Z,36.38
2023-02-13T23:54:05.415Z,42.70
2023-02-13T23:56:32.947Z,37.97
2023-02-13T23:59:00.667Z,45.55
